Aérodrome :
LOGIN :

S'inscrire | Disclaimer

   EN    FR    IT 

 










Légende :    VFR   VFR Marginal   IFR   IFR Intensif   IFR Très Intensif
Visi : 
Plafond : 
>= 8 km
>= 3000ft
5 à 8 km
1000 à 3000 ft
1500m à 5 km
500 à 1000 ft
800 à 1500m
200 à 500 ft
< 800m
< 200 ft
Symboles :   Orages  Brouillard  Fortes neiges  Fortes précipitations  Vent > 20 kt
SIGMETs :   Divers  Orages  Givrage  Turbulence  Onde Orograph.  Cendres Volcan.






- Altitude de l'aérodrome : 13 ft
- Code IATA : OST


EBOS - Oostend bruges Int.

DERNIER METAR :
  • 010020Z 06008KT CAVOK 03/M00 Q1027 NOSIG

METARs EXPIRÉS :
  • 312350Z 06008KT CAVOK 04/M00 Q1027 NOSIG
  • 312320Z 06008KT CAVOK 04/M00 Q1028 NOSIG
  • 312250Z 06008KT CAVOK 04/M00 Q1028 NOSIG
  • 312220Z 06007KT CAVOK 04/M00 Q1028 NOSIG
  • 312150Z 06008KT CAVOK 04/01 Q1028 NOSIG

TAF TAF EBOS
Valide du 01 à 00h jusqu'au 02 à 06h UTC


312309Z 0100/0206 07005KT 9999 FEW025



MET'MAP, la Météo Aéronautique d'un coup d'oeil ! - Copyright ORBIFLY Décembre 2007 - Disclaimer

ORBIFLY MET'MAP TEAM :

Programmation & Développement : Alexandra Zaïnal
Sur une idée originale de : Baudouin d'Aumeries
Assistance à la programmation : Marc-Olivier Méhu
Soutien technique & logistique : Manuel Goepfert

Contact : metmap@orbifly.com




SOURCES & CREDITS :

   NOAA